sensor_id;sensor_type;location;lat;lon;timestamp;temperature;humidity
70734;DHT22;58320;48.804;9.252;2024-03-02T00:00:10;6.40;88.50
70734;DHT22;58320;48.804;9.252;2024-03-02T00:02:43;6.50;88.10
70734;DHT22;58320;48.804;9.252;2024-03-02T00:05:20;6.50;87.50
70734;DHT22;58320;48.804;9.252;2024-03-02T00:07:55;6.60;86.50
70734;DHT22;58320;48.804;9.252;2024-03-02T00:10:25;6.60;86.30
70734;DHT22;58320;48.804;9.252;2024-03-02T00:12:55;6.60;86.20
70734;DHT22;58320;48.804;9.252;2024-03-02T00:17:57;6.60;85.80
70734;DHT22;58320;48.804;9.252;2024-03-02T00:20:23;6.60;85.80
70734;DHT22;58320;48.804;9.252;2024-03-02T00:22:50;6.60;85.70
70734;DHT22;58320;48.804;9.252;2024-03-02T00:25:16;6.50;86.00
70734;DHT22;58320;48.804;9.252;2024-03-02T00:27:42;6.50;86.30
70734;DHT22;58320;48.804;9.252;2024-03-02T00:30:51;6.50;86.40
70734;DHT22;58320;48.804;9.252;2024-03-02T00:33:25;6.40;86.80
70734;DHT22;58320;48.804;9.252;2024-03-02T00:35:52;6.40;87.00
70734;DHT22;58320;48.804;9.252;2024-03-02T00:38:18;6.30;87.10
70734;DHT22;58320;48.804;9.252;2024-03-02T00:40:44;6.30;87.00
70734;DHT22;58320;48.804;9.252;2024-03-02T00:46:12;6.30;86.90
70734;DHT22;58320;48.804;9.252;2024-03-02T00:48:47;6.30;86.80
70734;DHT22;58320;48.804;9.252;2024-03-02T00:51:16;6.30;86.80
70734;DHT22;58320;48.804;9.252;2024-03-02T00:53:42;6.30;86.70
70734;DHT22;58320;48.804;9.252;2024-03-02T00:56:10;6.30;86.60
70734;DHT22;58320;48.804;9.252;2024-03-02T00:58:37;6.30;86.60
70734;DHT22;58320;48.804;9.252;2024-03-02T01:01:03;6.30;86.90
70734;DHT22;58320;48.804;9.252;2024-03-02T01:03:30;6.20;87.10
70734;DHT22;58320;48.804;9.252;2024-03-02T01:05:57;6.20;87.40
70734;DHT22;58320;48.804;9.252;2024-03-02T01:08:23;6.10;87.80
70734;DHT22;58320;48.804;9.252;2024-03-02T01:10:49;6.10;88.10
70734;DHT22;58320;48.804;9.252;2024-03-02T01:13:15;6.00;88.40
70734;DHT22;58320;48.804;9.252;2024-03-02T01:15:40;6.00;88.40
70734;DHT22;58320;48.804;9.252;2024-03-02T01:18:06;6.00;88.30
70734;DHT22;58320;48.804;9.252;2024-03-02T01:20:32;6.00;88.20
70734;DHT22;58320;48.804;9.252;2024-03-02T01:22:58;6.00;88.20
70734;DHT22;58320;48.804;9.252;2024-03-02T01:25:23;6.00;88.10
70734;DHT22;58320;48.804;9.252;2024-03-02T01:27:50;6.10;87.70
70734;DHT22;58320;48.804;9.252;2024-03-02T01:30:16;6.00;87.90
70734;DHT22;58320;48.804;9.252;2024-03-02T01:32:41;6.00;88.10
70734;DHT22;58320;48.804;9.252;2024-03-02T01:35:07;5.90;88.20
70734;DHT22;58320;48.804;9.252;2024-03-02T01:37:33;5.90;88.40
70734;DHT22;58320;48.804;9.252;2024-03-02T01:39:59;5.90;88.60
70734;DHT22;58320;48.804;9.252;2024-03-02T01:42:24;5.80;88.90
70734;DHT22;58320;48.804;9.252;2024-03-02T01:44:51;5.80;89.00
70734;DHT22;58320;48.804;9.252;2024-03-02T01:47:17;5.80;89.20
70734;DHT22;58320;48.804;9.252;2024-03-02T01:49:43;5.70;89.40
70734;DHT22;58320;48.804;9.252;2024-03-02T01:52:08;5.60;89.70
70734;DHT22;58320;48.804;9.252;2024-03-02T01:54:34;5.50;89.90
70734;DHT22;58320;48.804;9.252;2024-03-02T01:57:00;5.50;90.60
70734;DHT22;58320;48.804;9.252;2024-03-02T01:59:26;5.40;90.90
70734;DHT22;58320;48.804;9.252;2024-03-02T02:01:52;5.40;91.10
70734;DHT22;58320;48.804;9.252;2024-03-02T02:04:18;5.40;91.00
70734;DHT22;58320;48.804;9.252;2024-03-02T02:06:46;5.50;90.80
70734;DHT22;58320;48.804;9.252;2024-03-02T02:09:12;5.40;90.70
70734;DHT22;58320;48.804;9.252;2024-03-02T02:11:38;5.40;90.70
70734;DHT22;58320;48.804;9.252;2024-03-02T02:14:04;5.40;90.90
70734;DHT22;58320;48.804;9.252;2024-03-02T02:16:31;5.40;90.90
70734;DHT22;58320;48.804;9.252;2024-03-02T02:18:57;5.40;90.90
70734;DHT22;58320;48.804;9.252;2024-03-02T02:21:23;5.40;91.00
70734;DHT22;58320;48.804;9.252;2024-03-02T02:23:48;5.40;91.10
70734;DHT22;58320;48.804;9.252;2024-03-02T02:26:15;5.40;91.00
70734;DHT22;58320;48.804;9.252;2024-03-02T02:28:41;5.40;91.20
70734;DHT22;58320;48.804;9.252;2024-03-02T02:31:12;5.30;91.40
70734;DHT22;58320;48.804;9.252;2024-03-02T02:33:42;5.30;91.60
70734;DHT22;58320;48.804;9.252;2024-03-02T02:36:07;5.30;91.90
70734;DHT22;58320;48.804;9.252;2024-03-02T02:38:38;5.20;92.10
70734;DHT22;58320;48.804;9.252;2024-03-02T02:41:06;5.20;92.10
70734;DHT22;58320;48.804;9.252;2024-03-02T02:43:32;5.10;92.30
70734;DHT22;58320;48.804;9.252;2024-03-02T02:45:58;5.10;92.60
70734;DHT22;58320;48.804;9.252;2024-03-02T02:48:23;5.10;92.60
70734;DHT22;58320;48.804;9.252;2024-03-02T02:50:49;5.10;92.70
70734;DHT22;58320;48.804;9.252;2024-03-02T02:53:15;5.00;92.90
70734;DHT22;58320;48.804;9.252;2024-03-02T02:55:41;5.00;93.20
70734;DHT22;58320;48.804;9.252;2024-03-02T02:58:09;4.90;93.50
70734;DHT22;58320;48.804;9.252;2024-03-02T03:00:35;5.00;93.50
70734;DHT22;58320;48.804;9.252;2024-03-02T03:03:02;4.90;93.40
70734;DHT22;58320;48.804;9.252;2024-03-02T03:05:28;4.90;93.60
70734;DHT22;58320;48.804;9.252;2024-03-02T03:07:53;4.90;93.50
70734;DHT22;58320;48.804;9.252;2024-03-02T03:10:19;4.90;93.60
70734;DHT22;58320;48.804;9.252;2024-03-02T03:12:47;4.90;93.60
70734;DHT22;58320;48.804;9.252;2024-03-02T03:15:13;4.90;93.60
70734;DHT22;58320;48.804;9.252;2024-03-02T03:17:40;4.80;93.70
70734;DHT22;58320;48.804;9.252;2024-03-02T03:20:06;4.80;93.90
70734;DHT22;58320;48.804;9.252;2024-03-02T03:22:35;4.80;93.90
70734;DHT22;58320;48.804;9.252;2024-03-02T03:25:02;4.80;93.80
70734;DHT22;58320;48.804;9.252;2024-03-02T03:27:28;4.80;93.60
70734;DHT22;58320;48.804;9.252;2024-03-02T03:29:54;4.90;93.70
70734;DHT22;58320;48.804;9.252;2024-03-02T03:32:20;4.80;93.50
70734;DHT22;58320;48.804;9.252;2024-03-02T03:34:46;4.80;93.70
70734;DHT22;58320;48.804;9.252;2024-03-02T03:37:13;4.70;94.10
70734;DHT22;58320;48.804;9.252;2024-03-02T03:39:39;4.70;94.40
70734;DHT22;58320;48.804;9.252;2024-03-02T03:42:04;4.70;94.50
70734;DHT22;58320;48.804;9.252;2024-03-02T03:44:30;4.70;94.50
70734;DHT22;58320;48.804;9.252;2024-03-02T03:46:56;4.70;94.50
70734;DHT22;58320;48.804;9.252;2024-03-02T03:49:22;4.60;94.40
70734;DHT22;58320;48.804;9.252;2024-03-02T03:51:47;4.60;94.70
70734;DHT22;58320;48.804;9.252;2024-03-02T03:54:13;4.60;94.70
70734;DHT22;58320;48.804;9.252;2024-03-02T03:56:39;4.60;94.90
70734;DHT22;58320;48.804;9.252;2024-03-02T03:59:05;4.50;95.00
70734;DHT22;58320;48.804;9.252;2024-03-02T04:03:43;4.50;95.60
70734;DHT22;58320;48.804;9.252;2024-03-02T04:06:09;4.50;95.70
70734;DHT22;58320;48.804;9.252;2024-03-02T04:08:34;4.60;95.70
70734;DHT22;58320;48.804;9.252;2024-03-02T04:11:00;4.50;95.90
70734;DHT22;58320;48.804;9.252;2024-03-02T04:13:28;4.60;96.10
70734;DHT22;58320;48.804;9.252;2024-03-02T04:15:53;4.50;96.20
70734;DHT22;58320;48.804;9.252;2024-03-02T04:18:19;4.60;96.10
70734;DHT22;58320;48.804;9.252;2024-03-02T04:20:45;4.60;96.20
70734;DHT22;58320;48.804;9.252;2024-03-02T04:23:10;4.60;96.00
70734;DHT22;58320;48.804;9.252;2024-03-02T04:25:36;4.60;96.00
70734;DHT22;58320;48.804;9.252;2024-03-02T04:28:02;4.60;96.00
70734;DHT22;58320;48.804;9.252;2024-03-02T04:30:27;4.70;95.70
70734;DHT22;58320;48.804;9.252;2024-03-02T04:32:53;4.70;95.60
70734;DHT22;58320;48.804;9.252;2024-03-02T04:35:19;4.70;95.40
70734;DHT22;58320;48.804;9.252;2024-03-02T04:37:44;4.80;95.30
70734;DHT22;58320;48.804;9.252;2024-03-02T04:40:11;4.80;95.20
70734;DHT22;58320;48.804;9.252;2024-03-02T04:42:36;4.80;95.00
70734;DHT22;58320;48.804;9.252;2024-03-02T04:45:02;4.70;95.10
70734;DHT22;58320;48.804;9.252;2024-03-02T04:47:28;4.70;95.40
70734;DHT22;58320;48.804;9.252;2024-03-02T04:49:54;4.70;95.40
70734;DHT22;58320;48.804;9.252;2024-03-02T04:52:20;4.70;95.50
70734;DHT22;58320;48.804;9.252;2024-03-02T04:54:45;4.70;95.70
70734;DHT22;58320;48.804;9.252;2024-03-02T04:57:29;4.70;95.80
70734;DHT22;58320;48.804;9.252;2024-03-02T04:59:55;4.60;95.70
70734;DHT22;58320;48.804;9.252;2024-03-02T05:02:21;4.60;95.60
70734;DHT22;58320;48.804;9.252;2024-03-02T05:04:46;4.50;96.00
70734;DHT22;58320;48.804;9.252;2024-03-02T05:07:14;4.50;96.40
70734;DHT22;58320;48.804;9.252;2024-03-02T05:09:40;4.40;96.70
70734;DHT22;58320;48.804;9.252;2024-03-02T05:12:06;4.40;96.90
70734;DHT22;58320;48.804;9.252;2024-03-02T05:14:34;4.30;96.90
70734;DHT22;58320;48.804;9.252;2024-03-02T05:17:00;4.20;96.90
70734;DHT22;58320;48.804;9.252;2024-03-02T05:19:25;4.10;97.10
70734;DHT22;58320;48.804;9.252;2024-03-02T05:21:51;4.00;97.20
70734;DHT22;58320;48.804;9.252;2024-03-02T05:24:17;4.00;97.30
70734;DHT22;58320;48.804;9.252;2024-03-02T05:26:42;3.90;97.50
70734;DHT22;58320;48.804;9.252;2024-03-02T05:29:09;3.80;97.60
70734;DHT22;58320;48.804;9.252;2024-03-02T05:31:34;3.80;97.90
70734;DHT22;58320;48.804;9.252;2024-03-02T05:34:00;3.70;98.20
70734;DHT22;58320;48.804;9.252;2024-03-02T05:36:26;3.60;98.60
70734;DHT22;58320;48.804;9.252;2024-03-02T05:38:52;3.60;98.70
70734;DHT22;58320;48.804;9.252;2024-03-02T05:41:18;3.50;98.90
70734;DHT22;58320;48.804;9.252;2024-03-02T05:43:43;3.40;99.30
70734;DHT22;58320;48.804;9.252;2024-03-02T05:46:09;3.40;99.70
70734;DHT22;58320;48.804;9.252;2024-03-02T05:48:35;3.30;99.90
70734;DHT22;58320;48.804;9.252;2024-03-02T05:51:00;3.30;99.90
70734;DHT22;58320;48.804;9.252;2024-03-02T05:53:26;3.30;99.90
70734;DHT22;58320;48.804;9.252;2024-03-02T05:55:52;3.30;99.90
70734;DHT22;58320;48.804;9.252;2024-03-02T05:58:21;3.30;99.90
70734;DHT22;58320;48.804;9.252;2024-03-02T06:01:08;3.30;99.90
70734;DHT22;58320;48.804;9.252;2024-03-02T06:03:34;3.30;99.90
70734;DHT22;58320;48.804;9.252;2024-03-02T06:05:59;3.30;99.90
70734;DHT22;58320;48.804;9.252;2024-03-02T06:08:25;3.20;99.90
70734;DHT22;58320;48.804;9.252;2024-03-02T06:10:51;3.20;99.90
70734;DHT22;58320;48.804;9.252;2024-03-02T06:13:16;3.20;99.90
70734;DHT22;58320;48.804;9.252;2024-03-02T06:15:42;3.20;99.90
70734;DHT22;58320;48.804;9.252;2024-03-02T06:18:08;3.20;99.90
70734;DHT22;58320;48.804;9.252;2024-03-02T06:20:34;3.20;99.90
70734;DHT22;58320;48.804;9.252;2024-03-02T06:23:00;3.20;99.90
70734;DHT22;58320;48.804;9.252;2024-03-02T06:25:26;3.20;99.90
70734;DHT22;58320;48.804;9.252;2024-03-02T06:27:52;3.30;99.90
70734;DHT22;58320;48.804;9.252;2024-03-02T06:30:17;3.40;99.90
70734;DHT22;58320;48.804;9.252;2024-03-02T06:32:43;3.50;99.90
70734;DHT22;58320;48.804;9.252;2024-03-02T06:35:09;3.50;99.90
70734;DHT22;58320;48.804;9.252;2024-03-02T06:37:36;3.70;99.90
70734;DHT22;58320;48.804;9.252;2024-03-02T06:40:03;3.80;99.90
70734;DHT22;58320;48.804;9.252;2024-03-02T06:42:29;3.90;99.90
70734;DHT22;58320;48.804;9.252;2024-03-02T06:44:58;4.10;99.90
70734;DHT22;58320;48.804;9.252;2024-03-02T06:47:24;4.20;99.70
70734;DHT22;58320;48.804;9.252;2024-03-02T06:49:50;4.30;98.70
70734;DHT22;58320;48.804;9.252;2024-03-02T06:52:16;4.40;98.10
70734;DHT22;58320;48.804;9.252;2024-03-02T06:54:42;4.50;97.90
70734;DHT22;58320;48.804;9.252;2024-03-02T06:57:08;4.50;96.50
70734;DHT22;58320;48.804;9.252;2024-03-02T06:59:34;4.60;96.30
70734;DHT22;58320;48.804;9.252;2024-03-02T07:01:59;4.70;96.20
70734;DHT22;58320;48.804;9.252;2024-03-02T07:04:26;4.80;95.70
70734;DHT22;58320;48.804;9.252;2024-03-02T07:06:51;4.90;95.10
70734;DHT22;58320;48.804;9.252;2024-03-02T07:09:17;5.00;94.30
70734;DHT22;58320;48.804;9.252;2024-03-02T07:11:43;5.20;93.30
70734;DHT22;58320;48.804;9.252;2024-03-02T07:14:09;5.30;92.90
70734;DHT22;58320;48.804;9.252;2024-03-02T07:16:37;5.40;92.30
70734;DHT22;58320;48.804;9.252;2024-03-02T07:19:03;5.50;91.70
70734;DHT22;58320;48.804;9.252;2024-03-02T07:21:29;5.60;90.90
70734;DHT22;58320;48.804;9.252;2024-03-02T07:23:55;5.70;90.40
70734;DHT22;58320;48.804;9.252;2024-03-02T07:26:20;5.80;89.20
70734;DHT22;58320;48.804;9.252;2024-03-02T07:28:47;6.00;88.40
70734;DHT22;58320;48.804;9.252;2024-03-02T07:31:14;6.10;87.20
70734;DHT22;58320;48.804;9.252;2024-03-02T07:33:40;6.20;86.70
70734;DHT22;58320;48.804;9.252;2024-03-02T07:36:07;6.40;86.30
70734;DHT22;58320;48.804;9.252;2024-03-02T07:38:33;6.50;84.90
70734;DHT22;58320;48.804;9.252;2024-03-02T07:41:00;6.60;84.00
70734;DHT22;58320;48.804;9.252;2024-03-02T07:43:26;6.70;83.20
70734;DHT22;58320;48.804;9.252;2024-03-02T07:45:52;6.90;81.70
70734;DHT22;58320;48.804;9.252;2024-03-02T07:48:18;7.00;81.60
70734;DHT22;58320;48.804;9.252;2024-03-02T07:50:43;7.10;81.30
70734;DHT22;58320;48.804;9.252;2024-03-02T07:53:10;7.00;80.80
70734;DHT22;58320;48.804;9.252;2024-03-02T07:55:35;7.00;82.00
70734;DHT22;58320;48.804;9.252;2024-03-02T07:58:01;6.90;81.70
70734;DHT22;58320;48.804;9.252;2024-03-02T08:00:27;6.90;81.70
70734;DHT22;58320;48.804;9.252;2024-03-02T08:02:54;6.80;81.50
70734;DHT22;58320;48.804;9.252;2024-03-02T08:05:20;6.80;81.40
70734;DHT22;58320;48.804;9.252;2024-03-02T08:07:46;6.80;80.90
70734;DHT22;58320;48.804;9.252;2024-03-02T08:10:12;6.80;81.10
70734;DHT22;58320;48.804;9.252;2024-03-02T08:12:38;6.70;81.60
70734;DHT22;58320;48.804;9.252;2024-03-02T08:15:05;6.70;81.70
70734;DHT22;58320;48.804;9.252;2024-03-02T08:17:31;6.70;81.90
70734;DHT22;58320;48.804;9.252;2024-03-02T08:19:57;6.70;80.80
70734;DHT22;58320;48.804;9.252;2024-03-02T08:22:23;6.70;82.20
70734;DHT22;58320;48.804;9.252;2024-03-02T08:24:52;6.70;81.50
70734;DHT22;58320;48.804;9.252;2024-03-02T08:27:18;6.80;81.00
70734;DHT22;58320;48.804;9.252;2024-03-02T08:29:44;6.90;80.80
70734;DHT22;58320;48.804;9.252;2024-03-02T08:32:09;7.00;80.10
70734;DHT22;58320;48.804;9.252;2024-03-02T08:34:35;7.10;79.90
70734;DHT22;58320;48.804;9.252;2024-03-02T08:37:01;7.20;79.00
70734;DHT22;58320;48.804;9.252;2024-03-02T08:39:28;7.20;78.50
70734;DHT22;58320;48.804;9.252;2024-03-02T08:41:54;7.30;78.40
70734;DHT22;58320;48.804;9.252;2024-03-02T08:44:20;7.50;78.30
70734;DHT22;58320;48.804;9.252;2024-03-02T08:46:45;7.60;77.30
70734;DHT22;58320;48.804;9.252;2024-03-02T08:49:12;7.80;76.70
70734;DHT22;58320;48.804;9.252;2024-03-02T08:51:38;8.00;75.60
70734;DHT22;58320;48.804;9.252;2024-03-02T08:54:04;8.20;74.70
70734;DHT22;58320;48.804;9.252;2024-03-02T08:56:30;8.50;74.30
70734;DHT22;58320;48.804;9.252;2024-03-02T08:58:56;8.80;73.60
70734;DHT22;58320;48.804;9.252;2024-03-02T09:01:22;8.90;72.70
70734;DHT22;58320;48.804;9.252;2024-03-02T09:03:48;9.10;72.00
70734;DHT22;58320;48.804;9.252;2024-03-02T09:06:17;9.30;70.80
70734;DHT22;58320;48.804;9.252;2024-03-02T09:08:43;9.40;70.80
70734;DHT22;58320;48.804;9.252;2024-03-02T09:11:09;9.70;68.90
70734;DHT22;58320;48.804;9.252;2024-03-02T09:13:36;9.60;69.70
70734;DHT22;58320;48.804;9.252;2024-03-02T09:16:02;9.70;70.20
70734;DHT22;58320;48.804;9.252;2024-03-02T09:18:29;9.90;68.40
70734;DHT22;58320;48.804;9.252;2024-03-02T09:20:55;10.00;69.90
70734;DHT22;58320;48.804;9.252;2024-03-02T09:23:21;10.20;68.60
70734;DHT22;58320;48.804;9.252;2024-03-02T09:25:46;10.40;67.30
70734;DHT22;58320;48.804;9.252;2024-03-02T09:28:12;10.30;67.70
70734;DHT22;58320;48.804;9.252;2024-03-02T09:30:38;10.40;66.60
70734;DHT22;58320;48.804;9.252;2024-03-02T09:33:04;10.40;65.00
70734;DHT22;58320;48.804;9.252;2024-03-02T09:35:30;10.40;65.70
70734;DHT22;58320;48.804;9.252;2024-03-02T09:37:55;10.60;64.70
70734;DHT22;58320;48.804;9.252;2024-03-02T09:40:24;10.80;64.30
70734;DHT22;58320;48.804;9.252;2024-03-02T09:42:51;10.60;63.50
70734;DHT22;58320;48.804;9.252;2024-03-02T09:45:23;10.70;63.70
70734;DHT22;58320;48.804;9.252;2024-03-02T09:47:50;10.80;63.00
70734;DHT22;58320;48.804;9.252;2024-03-02T09:50:16;10.90;62.10
70734;DHT22;58320;48.804;9.252;2024-03-02T09:52:48;10.90;62.10
70734;DHT22;58320;48.804;9.252;2024-03-02T09:55:15;11.00;61.70
70734;DHT22;58320;48.804;9.252;2024-03-02T09:57:43;11.20;62.00
70734;DHT22;58320;48.804;9.252;2024-03-02T10:00:09;11.50;61.00
70734;DHT22;58320;48.804;9.252;2024-03-02T10:02:40;11.70;60.50
70734;DHT22;58320;48.804;9.252;2024-03-02T10:05:08;11.90;60.10
70734;DHT22;58320;48.804;9.252;2024-03-02T10:07:34;12.10;59.00
70734;DHT22;58320;48.804;9.252;2024-03-02T10:10:15;11.90;58.60
70734;DHT22;58320;48.804;9.252;2024-03-02T10:12:41;12.00;58.20
70734;DHT22;58320;48.804;9.252;2024-03-02T10:15:07;12.10;59.00
70734;DHT22;58320;48.804;9.252;2024-03-02T10:17:35;12.40;57.00
70734;DHT22;58320;48.804;9.252;2024-03-02T10:20:21;12.70;57.40
70734;DHT22;58320;48.804;9.252;2024-03-02T10:23:09;12.70;56.60
70734;DHT22;58320;48.804;9.252;2024-03-02T10:25:39;12.80;56.90
70734;DHT22;58320;48.804;9.252;2024-03-02T10:28:05;13.10;56.70
70734;DHT22;58320;48.804;9.252;2024-03-02T10:30:32;13.40;55.30
70734;DHT22;58320;48.804;9.252;2024-03-02T10:32:59;13.70;54.30
70734;DHT22;58320;48.804;9.252;2024-03-02T10:35:26;13.40;54.50
70734;DHT22;58320;48.804;9.252;2024-03-02T10:37:55;13.40;55.10
70734;DHT22;58320;48.804;9.252;2024-03-02T10:40:23;13.40;55.70
70734;DHT22;58320;48.804;9.252;2024-03-02T10:42:52;13.70;55.30
70734;DHT22;58320;48.804;9.252;2024-03-02T10:45:19;13.80;55.50
70734;DHT22;58320;48.804;9.252;2024-03-02T10:47:47;13.80;53.30
70734;DHT22;58320;48.804;9.252;2024-03-02T10:50:13;13.60;54.10
70734;DHT22;58320;48.804;9.252;2024-03-02T10:52:39;13.70;53.80
70734;DHT22;58320;48.804;9.252;2024-03-02T10:55:06;13.90;54.70
70734;DHT22;58320;48.804;9.252;2024-03-02T10:57:54;14.00;54.80
70734;DHT22;58320;48.804;9.252;2024-03-02T11:00:24;14.20;53.80
70734;DHT22;58320;48.804;9.252;2024-03-02T11:03:04;14.40;53.50
70734;DHT22;58320;48.804;9.252;2024-03-02T11:05:38;14.70;53.10
70734;DHT22;58320;48.804;9.252;2024-03-02T11:08:08;15.00;52.80
70734;DHT22;58320;48.804;9.252;2024-03-02T11:10:41;15.30;51.20
70734;DHT22;58320;48.804;9.252;2024-03-02T11:13:11;15.70;50.70
70734;DHT22;58320;48.804;9.252;2024-03-02T11:15:40;16.50;48.90
70734;DHT22;58320;48.804;9.252;2024-03-02T11:18:06;17.20;47.10
70734;DHT22;58320;48.804;9.252;2024-03-02T11:20:36;17.60;46.10
70734;DHT22;58320;48.804;9.252;2024-03-02T11:23:08;17.90;45.10
70734;DHT22;58320;48.804;9.252;2024-03-02T11:25:35;18.30;44.90
70734;DHT22;58320;48.804;9.252;2024-03-02T11:28:03;18.50;43.90
70734;DHT22;58320;48.804;9.252;2024-03-02T11:33:04;19.30;43.40
70734;DHT22;58320;48.804;9.252;2024-03-02T11:35:35;19.90;41.90
70734;DHT22;58320;48.804;9.252;2024-03-02T11:38:01;20.00;40.70
70734;DHT22;58320;48.804;9.252;2024-03-02T11:40:29;19.70;40.60
70734;DHT22;58320;48.804;9.252;2024-03-02T11:42:56;20.20;39.20
70734;DHT22;58320;48.804;9.252;2024-03-02T11:45:23;20.50;39.80
70734;DHT22;58320;48.804;9.252;2024-03-02T11:47:57;20.80;39.30
70734;DHT22;58320;48.804;9.252;2024-03-02T11:50:39;21.20;38.20
70734;DHT22;58320;48.804;9.252;2024-03-02T11:53:15;21.30;36.40
70734;DHT22;58320;48.804;9.252;2024-03-02T11:55:42;21.00;37.30
70734;DHT22;58320;48.804;9.252;2024-03-02T11:58:12;20.50;37.30
70734;DHT22;58320;48.804;9.252;2024-03-02T12:00:38;20.10;38.00
70734;DHT22;58320;48.804;9.252;2024-03-02T12:05:30;20.30;37.60
70734;DHT22;58320;48.804;9.252;2024-03-02T12:08:04;20.40;36.30
70734;DHT22;58320;48.804;9.252;2024-03-02T12:10:31;20.20;37.30
70734;DHT22;58320;48.804;9.252;2024-03-02T12:15:31;20.00;37.40
70734;DHT22;58320;48.804;9.252;2024-03-02T12:17:59;19.40;38.30
70734;DHT22;58320;48.804;9.252;2024-03-02T12:20:27;20.00;37.80
70734;DHT22;58320;48.804;9.252;2024-03-02T12:22:55;20.40;37.50
70734;DHT22;58320;48.804;9.252;2024-03-02T12:25:24;20.90;36.10
70734;DHT22;58320;48.804;9.252;2024-03-02T12:27:52;21.40;36.20
70734;DHT22;58320;48.804;9.252;2024-03-02T12:30:20;21.20;35.20
70734;DHT22;58320;48.804;9.252;2024-03-02T12:32:47;20.90;35.90
70734;DHT22;58320;48.804;9.252;2024-03-02T12:35:13;21.30;35.60
70734;DHT22;58320;48.804;9.252;2024-03-02T12:37:47;21.70;35.00
70734;DHT22;58320;48.804;9.252;2024-03-02T12:40:14;21.80;35.10
70734;DHT22;58320;48.804;9.252;2024-03-02T12:42:42;22.30;35.20
70734;DHT22;58320;48.804;9.252;2024-03-02T12:45:08;22.90;33.60
70734;DHT22;58320;48.804;9.252;2024-03-02T12:47:35;22.90;32.70
70734;DHT22;58320;48.804;9.252;2024-03-02T12:50:01;22.30;34.00
70734;DHT22;58320;48.804;9.252;2024-03-02T12:52:28;23.00;33.90
70734;DHT22;58320;48.804;9.252;2024-03-02T12:54:54;23.20;33.00
70734;DHT22;58320;48.804;9.252;2024-03-02T12:57:28;22.20;33.70
70734;DHT22;58320;48.804;9.252;2024-03-02T13:00:02;22.30;33.00
70734;DHT22;58320;48.804;9.252;2024-03-02T13:02:34;22.00;33.60
70734;DHT22;58320;48.804;9.252;2024-03-02T13:05:01;22.60;32.40
70734;DHT22;58320;48.804;9.252;2024-03-02T13:07:27;23.10;31.90
70734;DHT22;58320;48.804;9.252;2024-03-02T13:09:55;23.20;31.90
70734;DHT22;58320;48.804;9.252;2024-03-02T13:12:22;23.30;31.90
70734;DHT22;58320;48.804;9.252;2024-03-02T13:14:52;22.90;32.00
70734;DHT22;58320;48.804;9.252;2024-03-02T13:17:19;21.90;33.30
70734;DHT22;58320;48.804;9.252;2024-03-02T13:19:58;22.00;33.30
70734;DHT22;58320;48.804;9.252;2024-03-02T13:22:25;22.60;32.80
70734;DHT22;58320;48.804;9.252;2024-03-02T13:24:52;22.70;33.40
70734;DHT22;58320;48.804;9.252;2024-03-02T13:27:20;22.20;32.90
70734;DHT22;58320;48.804;9.252;2024-03-02T13:29:49;21.60;33.20
70734;DHT22;58320;48.804;9.252;2024-03-02T13:32:18;22.10;33.20
70734;DHT22;58320;48.804;9.252;2024-03-02T13:34:48;21.90;33.20
70734;DHT22;58320;48.804;9.252;2024-03-02T13:37:14;21.30;33.90
70734;DHT22;58320;48.804;9.252;2024-03-02T13:39:40;20.60;34.60
70734;DHT22;58320;48.804;9.252;2024-03-02T13:42:11;20.50;35.80
70734;DHT22;58320;48.804;9.252;2024-03-02T13:44:39;20.00;36.50
70734;DHT22;58320;48.804;9.252;2024-03-02T13:47:05;20.10;36.30
70734;DHT22;58320;48.804;9.252;2024-03-02T13:49:31;19.80;36.70
70734;DHT22;58320;48.804;9.252;2024-03-02T13:52:05;19.50;37.40
70734;DHT22;58320;48.804;9.252;2024-03-02T13:54:41;19.20;37.60
70734;DHT22;58320;48.804;9.252;2024-03-02T13:57:08;19.80;37.30
70734;DHT22;58320;48.804;9.252;2024-03-02T13:59:35;20.20;36.60
70734;DHT22;58320;48.804;9.252;2024-03-02T14:02:02;20.10;36.30
70734;DHT22;58320;48.804;9.252;2024-03-02T14:04:32;20.20;36.10
70734;DHT22;58320;48.804;9.252;2024-03-02T14:06:59;20.40;35.90
70734;DHT22;58320;48.804;9.252;2024-03-02T14:09:25;21.00;35.60
70734;DHT22;58320;48.804;9.252;2024-03-02T14:11:51;20.70;35.20
70734;DHT22;58320;48.804;9.252;2024-03-02T14:14:17;21.40;35.40
70734;DHT22;58320;48.804;9.252;2024-03-02T14:16:44;22.10;34.30
70734;DHT22;58320;48.804;9.252;2024-03-02T14:19:12;22.50;33.80
70734;DHT22;58320;48.804;9.252;2024-03-02T14:21:39;22.60;33.60
70734;DHT22;58320;48.804;9.252;2024-03-02T14:24:05;22.60;33.60
70734;DHT22;58320;48.804;9.252;2024-03-02T14:26:32;22.30;34.40
70734;DHT22;58320;48.804;9.252;2024-03-02T14:28:59;21.70;34.90
70734;DHT22;58320;48.804;9.252;2024-03-02T14:31:27;21.10;35.00
70734;DHT22;58320;48.804;9.252;2024-03-02T14:33:53;19.90;35.60
70734;DHT22;58320;48.804;9.252;2024-03-02T14:36:19;19.60;36.80
70734;DHT22;58320;48.804;9.252;2024-03-02T14:38:45;19.80;36.90
70734;DHT22;58320;48.804;9.252;2024-03-02T14:41:12;20.00;36.80
70734;DHT22;58320;48.804;9.252;2024-03-02T14:43:38;20.30;35.90
70734;DHT22;58320;48.804;9.252;2024-03-02T14:46:04;20.40;35.80
70734;DHT22;58320;48.804;9.252;2024-03-02T14:48:29;20.70;35.30
70734;DHT22;58320;48.804;9.252;2024-03-02T14:50:55;20.70;34.80
70734;DHT22;58320;48.804;9.252;2024-03-02T14:53:21;20.70;35.10
70734;DHT22;58320;48.804;9.252;2024-03-02T14:55:47;20.30;35.30
70734;DHT22;58320;48.804;9.252;2024-03-02T14:58:12;20.70;34.60
70734;DHT22;58320;48.804;9.252;2024-03-02T15:00:38;20.90;34.20
70734;DHT22;58320;48.804;9.252;2024-03-02T15:03:04;20.70;33.80
70734;DHT22;58320;48.804;9.252;2024-03-02T15:05:34;20.00;35.00
70734;DHT22;58320;48.804;9.252;2024-03-02T15:08:00;19.70;35.60
70734;DHT22;58320;48.804;9.252;2024-03-02T15:10:29;19.50;35.80
70734;DHT22;58320;48.804;9.252;2024-03-02T15:12:55;19.90;35.40
70734;DHT22;58320;48.804;9.252;2024-03-02T15:15:21;20.30;35.30
70734;DHT22;58320;48.804;9.252;2024-03-02T15:17:47;20.40;34.90
70734;DHT22;58320;48.804;9.252;2024-03-02T15:20:12;20.30;35.00
70734;DHT22;58320;48.804;9.252;2024-03-02T15:22:38;20.00;35.70
70734;DHT22;58320;48.804;9.252;2024-03-02T15:25:04;19.90;35.40
70734;DHT22;58320;48.804;9.252;2024-03-02T15:27:29;19.30;36.10
70734;DHT22;58320;48.804;9.252;2024-03-02T15:29:56;18.50;36.80
70734;DHT22;58320;48.804;9.252;2024-03-02T15:32:23;17.80;37.70
70734;DHT22;58320;48.804;9.252;2024-03-02T15:34:49;17.10;38.60
70734;DHT22;58320;48.804;9.252;2024-03-02T15:37:15;16.70;39.70
70734;DHT22;58320;48.804;9.252;2024-03-02T15:39:40;16.30;40.70
70734;DHT22;58320;48.804;9.252;2024-03-02T15:42:06;16.10;41.70
70734;DHT22;58320;48.804;9.252;2024-03-02T15:44:32;16.00;42.20
70734;DHT22;58320;48.804;9.252;2024-03-02T15:46:58;15.80;43.10
70734;DHT22;58320;48.804;9.252;2024-03-02T15:49:24;15.60;43.20
70734;DHT22;58320;48.804;9.252;2024-03-02T15:51:50;15.40;43.80
70734;DHT22;58320;48.804;9.252;2024-03-02T15:54:16;15.30;44.70